sensor_id;sensor_type;location;lat;lon;timestamp;P1;durP1;ratioP1;P2;durP2;ratioP2
55633;SDS011;41504;53.162;6.788;2023-06-26T00:01:30;11.55;;;8.57;;
55633;SDS011;41504;53.162;6.788;2023-06-26T00:03:59;10.15;;;8.23;;
55633;SDS011;41504;53.162;6.788;2023-06-26T00:06:26;9.98;;;8.23;;
55633;SDS011;41504;53.162;6.788;2023-06-26T00:08:53;9.30;;;7.78;;
55633;SDS011;41504;53.162;6.788;2023-06-26T00:11:19;10.90;;;9.35;;
55633;SDS011;41504;53.162;6.788;2023-06-26T00:13:46;12.27;;;9.48;;
55633;SDS011;41504;53.162;6.788;2023-06-26T00:16:11;11.82;;;9.13;;
55633;SDS011;41504;53.162;6.788;2023-06-26T00:18:37;10.82;;;9.30;;
55633;SDS011;41504;53.162;6.788;2023-06-26T00:21:03;10.95;;;9.23;;
55633;SDS011;41504;53.162;6.788;2023-06-26T00:23:36;10.38;;;9.05;;
55633;SDS011;41504;53.162;6.788;2023-06-26T00:26:05;11.73;;;9.07;;
55633;SDS011;41504;53.162;6.788;2023-06-26T00:28:31;11.57;;;9.27;;
55633;SDS011;41504;53.162;6.788;2023-06-26T00:30:56;11.05;;;9.40;;
55633;SDS011;41504;53.162;6.788;2023-06-26T00:33:22;11.70;;;9.77;;
55633;SDS011;41504;53.162;6.788;2023-06-26T00:35:48;11.25;;;9.57;;
55633;SDS011;41504;53.162;6.788;2023-06-26T00:38:13;11.75;;;9.48;;
55633;SDS011;41504;53.162;6.788;2023-06-26T00:40:40;11.23;;;10.00;;
55633;SDS011;41504;53.162;6.788;2023-06-26T00:43:09;12.95;;;10.05;;
55633;SDS011;41504;53.162;6.788;2023-06-26T00:45:35;10.85;;;9.73;;
55633;SDS011;41504;53.162;6.788;2023-06-26T00:48:01;12.10;;;9.43;;
55633;SDS011;41504;53.162;6.788;2023-06-26T00:50:28;12.63;;;10.45;;
55633;SDS011;41504;53.162;6.788;2023-06-26T00:52:54;11.80;;;10.00;;
55633;SDS011;41504;53.162;6.788;2023-06-26T00:55:25;12.70;;;10.45;;
55633;SDS011;41504;53.162;6.788;2023-06-26T00:57:54;12.23;;;10.52;;
55633;SDS011;41504;53.162;6.788;2023-06-26T01:00:20;12.90;;;9.75;;
55633;SDS011;41504;53.162;6.788;2023-06-26T01:02:46;11.85;;;10.63;;
55633;SDS011;41504;53.162;6.788;2023-06-26T01:05:12;12.02;;;10.63;;
55633;SDS011;41504;53.162;6.788;2023-06-26T01:07:46;11.52;;;10.05;;
55633;SDS011;41504;53.162;6.788;2023-06-26T01:10:13;11.75;;;10.18;;
55633;SDS011;41504;53.162;6.788;2023-06-26T01:12:39;12.38;;;11.07;;
55633;SDS011;41504;53.162;6.788;2023-06-26T01:15:05;14.18;;;11.50;;
55633;SDS011;41504;53.162;6.788;2023-06-26T01:17:32;12.93;;;10.60;;
55633;SDS011;41504;53.162;6.788;2023-06-26T01:19:59;12.23;;;10.90;;
55633;SDS011;41504;53.162;6.788;2023-06-26T01:27:45;12.82;;;10.77;;
55633;SDS011;41504;53.162;6.788;2023-06-26T01:30:13;12.90;;;10.70;;
55633;SDS011;41504;53.162;6.788;2023-06-26T01:32:41;12.25;;;10.55;;
55633;SDS011;41504;53.162;6.788;2023-06-26T01:35:08;11.27;;;9.80;;
55633;SDS011;41504;53.162;6.788;2023-06-26T01:37:35;15.77;;;10.73;;
55633;SDS011;41504;53.162;6.788;2023-06-26T01:40:00;12.68;;;10.70;;
55633;SDS011;41504;53.162;6.788;2023-06-26T01:42:26;12.02;;;10.68;;
55633;SDS011;41504;53.162;6.788;2023-06-26T01:44:53;12.38;;;10.32;;
55633;SDS011;41504;53.162;6.788;2023-06-26T01:47:22;12.23;;;10.10;;
55633;SDS011;41504;53.162;6.788;2023-06-26T01:50:02;13.18;;;10.70;;
55633;SDS011;41504;53.162;6.788;2023-06-26T01:58:23;12.52;;;11.23;;
55633;SDS011;41504;53.162;6.788;2023-06-26T02:00:50;12.68;;;11.05;;
55633;SDS011;41504;53.162;6.788;2023-06-26T02:03:16;13.10;;;11.27;;
55633;SDS011;41504;53.162;6.788;2023-06-26T02:05:41;12.95;;;11.50;;
55633;SDS011;41504;53.162;6.788;2023-06-26T02:08:14;12.90;;;11.07;;
55633;SDS011;41504;53.162;6.788;2023-06-26T02:13:06;13.48;;;11.85;;
55633;SDS011;41504;53.162;6.788;2023-06-26T02:15:34;13.57;;;12.18;;
55633;SDS011;41504;53.162;6.788;2023-06-26T02:18:00;12.95;;;11.65;;
55633;SDS011;41504;53.162;6.788;2023-06-26T02:20:26;12.75;;;11.02;;
55633;SDS011;41504;53.162;6.788;2023-06-26T02:22:51;13.90;;;12.38;;
55633;SDS011;41504;53.162;6.788;2023-06-26T02:25:17;12.73;;;11.38;;
55633;SDS011;41504;53.162;6.788;2023-06-26T02:27:43;13.70;;;12.20;;
55633;SDS011;41504;53.162;6.788;2023-06-26T02:30:09;13.73;;;12.25;;
55633;SDS011;41504;53.162;6.788;2023-06-26T02:32:35;13.70;;;11.85;;
55633;SDS011;41504;53.162;6.788;2023-06-26T02:35:01;13.32;;;11.93;;
55633;SDS011;41504;53.162;6.788;2023-06-26T02:37:27;14.50;;;12.77;;
55633;SDS011;41504;53.162;6.788;2023-06-26T02:39:52;15.00;;;12.00;;
55633;SDS011;41504;53.162;6.788;2023-06-26T02:42:18;13.85;;;12.40;;
55633;SDS011;41504;53.162;6.788;2023-06-26T02:44:44;14.23;;;12.50;;
55633;SDS011;41504;53.162;6.788;2023-06-26T02:47:09;13.45;;;11.88;;
55633;SDS011;41504;53.162;6.788;2023-06-26T02:49:35;14.43;;;12.88;;
55633;SDS011;41504;53.162;6.788;2023-06-26T02:52:01;13.93;;;12.52;;
55633;SDS011;41504;53.162;6.788;2023-06-26T02:54:26;14.38;;;12.85;;
55633;SDS011;41504;53.162;6.788;2023-06-26T02:56:52;15.20;;;12.88;;
55633;SDS011;41504;53.162;6.788;2023-06-26T02:59:18;14.90;;;12.13;;
55633;SDS011;41504;53.162;6.788;2023-06-26T03:01:43;13.68;;;12.18;;
55633;SDS011;41504;53.162;6.788;2023-06-26T03:04:09;13.45;;;12.05;;
55633;SDS011;41504;53.162;6.788;2023-06-26T03:06:35;14.57;;;12.00;;
55633;SDS011;41504;53.162;6.788;2023-06-26T03:09:03;13.75;;;12.30;;
55633;SDS011;41504;53.162;6.788;2023-06-26T03:11:29;12.95;;;11.55;;
55633;SDS011;41504;53.162;6.788;2023-06-26T03:13:55;12.85;;;11.40;;
55633;SDS011;41504;53.162;6.788;2023-06-26T03:16:21;14.23;;;11.45;;
55633;SDS011;41504;53.162;6.788;2023-06-26T03:18:46;13.13;;;11.73;;
55633;SDS011;41504;53.162;6.788;2023-06-26T03:21:12;15.07;;;11.98;;
55633;SDS011;41504;53.162;6.788;2023-06-26T03:23:38;12.40;;;11.13;;
55633;SDS011;41504;53.162;6.788;2023-06-26T03:26:03;13.80;;;12.30;;
55633;SDS011;41504;53.162;6.788;2023-06-26T03:28:29;12.52;;;11.23;;
55633;SDS011;41504;53.162;6.788;2023-06-26T03:30:56;12.57;;;11.25;;
55633;SDS011;41504;53.162;6.788;2023-06-26T03:33:22;14.73;;;11.85;;
55633;SDS011;41504;53.162;6.788;2023-06-26T03:35:47;13.05;;;11.45;;
55633;SDS011;41504;53.162;6.788;2023-06-26T03:38:13;12.75;;;11.25;;
55633;SDS011;41504;53.162;6.788;2023-06-26T03:40:39;14.45;;;12.00;;
55633;SDS011;41504;53.162;6.788;2023-06-26T03:43:04;12.48;;;11.18;;
55633;SDS011;41504;53.162;6.788;2023-06-26T03:45:30;12.90;;;11.63;;
55633;SDS011;41504;53.162;6.788;2023-06-26T03:47:56;12.60;;;11.30;;
55633;SDS011;41504;53.162;6.788;2023-06-26T03:50:21;12.88;;;11.57;;
55633;SDS011;41504;53.162;6.788;2023-06-26T03:52:47;13.15;;;11.75;;
55633;SDS011;41504;53.162;6.788;2023-06-26T03:55:14;12.68;;;11.30;;
55633;SDS011;41504;53.162;6.788;2023-06-26T03:57:40;12.63;;;11.05;;
55633;SDS011;41504;53.162;6.788;2023-06-26T04:00:09;11.82;;;10.55;;
55633;SDS011;41504;53.162;6.788;2023-06-26T04:02:38;12.35;;;11.05;;
55633;SDS011;41504;53.162;6.788;2023-06-26T04:05:04;12.95;;;11.63;;
55633;SDS011;41504;53.162;6.788;2023-06-26T04:07:30;13.77;;;11.20;;
55633;SDS011;41504;53.162;6.788;2023-06-26T04:09:57;13.32;;;11.93;;
55633;SDS011;41504;53.162;6.788;2023-06-26T04:12:23;12.23;;;10.82;;
55633;SDS011;41504;53.162;6.788;2023-06-26T04:14:48;15.18;;;11.95;;
55633;SDS011;41504;53.162;6.788;2023-06-26T04:17:14;13.15;;;11.27;;
55633;SDS011;41504;53.162;6.788;2023-06-26T04:19:40;11.60;;;10.32;;
55633;SDS011;41504;53.162;6.788;2023-06-26T04:22:05;13.95;;;11.23;;
55633;SDS011;41504;53.162;6.788;2023-06-26T04:24:34;12.13;;;10.82;;
55633;SDS011;41504;53.162;6.788;2023-06-26T04:27:00;12.13;;;10.27;;
55633;SDS011;41504;53.162;6.788;2023-06-26T04:29:26;12.23;;;10.80;;
55633;SDS011;41504;53.162;6.788;2023-06-26T04:31:52;11.85;;;9.88;;
55633;SDS011;41504;53.162;6.788;2023-06-26T04:34:27;12.27;;;10.30;;
55633;SDS011;41504;53.162;6.788;2023-06-26T04:36:53;11.55;;;10.10;;
55633;SDS011;41504;53.162;6.788;2023-06-26T04:39:19;12.82;;;10.52;;
55633;SDS011;41504;53.162;6.788;2023-06-26T04:41:45;11.60;;;9.73;;
55633;SDS011;41504;53.162;6.788;2023-06-26T04:44:11;13.05;;;9.45;;
55633;SDS011;41504;53.162;6.788;2023-06-26T04:46:37;12.52;;;8.90;;
55633;SDS011;41504;53.162;6.788;2023-06-26T04:49:09;12.35;;;9.70;;
55633;SDS011;41504;53.162;6.788;2023-06-26T04:51:35;10.63;;;8.45;;
55633;SDS011;41504;53.162;6.788;2023-06-26T04:54:06;11.52;;;8.75;;
55633;SDS011;41504;53.162;6.788;2023-06-26T04:56:33;9.63;;;8.10;;
55633;SDS011;41504;53.162;6.788;2023-06-26T04:58:58;12.00;;;8.80;;
55633;SDS011;41504;53.162;6.788;2023-06-26T05:01:24;11.63;;;7.95;;
55633;SDS011;41504;53.162;6.788;2023-06-26T05:03:50;10.70;;;8.38;;
55633;SDS011;41504;53.162;6.788;2023-06-26T05:06:16;12.23;;;8.15;;
55633;SDS011;41504;53.162;6.788;2023-06-26T05:08:41;10.95;;;8.02;;
55633;SDS011;41504;53.162;6.788;2023-06-26T05:11:07;10.70;;;8.07;;
55633;SDS011;41504;53.162;6.788;2023-06-26T05:13:33;11.50;;;8.13;;
55633;SDS011;41504;53.162;6.788;2023-06-26T05:15:58;12.23;;;8.23;;
55633;SDS011;41504;53.162;6.788;2023-06-26T05:18:24;10.18;;;8.00;;
55633;SDS011;41504;53.162;6.788;2023-06-26T05:20:50;12.80;;;8.20;;
55633;SDS011;41504;53.162;6.788;2023-06-26T05:23:16;12.18;;;8.38;;
55633;SDS011;41504;53.162;6.788;2023-06-26T05:25:42;12.20;;;7.38;;
55633;SDS011;41504;53.162;6.788;2023-06-26T05:28:08;10.15;;;7.20;;
55633;SDS011;41504;53.162;6.788;2023-06-26T05:30:39;15.10;;;8.60;;
55633;SDS011;41504;53.162;6.788;2023-06-26T05:33:05;13.45;;;8.38;;
55633;SDS011;41504;53.162;6.788;2023-06-26T05:35:32;13.27;;;8.68;;
55633;SDS011;41504;53.162;6.788;2023-06-26T05:37:59;13.73;;;8.52;;
55633;SDS011;41504;53.162;6.788;2023-06-26T05:40:25;13.77;;;9.35;;
55633;SDS011;41504;53.162;6.788;2023-06-26T05:42:54;14.55;;;8.50;;
55633;SDS011;41504;53.162;6.788;2023-06-26T05:45:20;15.77;;;9.20;;
55633;SDS011;41504;53.162;6.788;2023-06-26T05:47:45;18.30;;;10.23;;
55633;SDS011;41504;53.162;6.788;2023-06-26T05:50:11;17.88;;;10.75;;
55633;SDS011;41504;53.162;6.788;2023-06-26T05:52:38;16.63;;;10.57;;
55633;SDS011;41504;53.162;6.788;2023-06-26T05:55:04;16.23;;;10.90;;
55633;SDS011;41504;53.162;6.788;2023-06-26T05:57:30;17.83;;;11.05;;
55633;SDS011;41504;53.162;6.788;2023-06-26T05:59:57;15.57;;;9.88;;
55633;SDS011;41504;53.162;6.788;2023-06-26T06:02:22;19.95;;;10.15;;
55633;SDS011;41504;53.162;6.788;2023-06-26T06:04:48;16.73;;;8.80;;
55633;SDS011;41504;53.162;6.788;2023-06-26T06:07:14;14.50;;;8.30;;
55633;SDS011;41504;53.162;6.788;2023-06-26T06:09:40;16.13;;;7.88;;
55633;SDS011;41504;53.162;6.788;2023-06-26T06:12:07;12.40;;;7.65;;
55633;SDS011;41504;53.162;6.788;2023-06-26T06:14:39;16.30;;;7.38;;
55633;SDS011;41504;53.162;6.788;2023-06-26T06:17:04;14.38;;;6.65;;
55633;SDS011;41504;53.162;6.788;2023-06-26T06:19:33;15.05;;;6.50;;
55633;SDS011;41504;53.162;6.788;2023-06-26T06:21:58;16.00;;;7.10;;
55633;SDS011;41504;53.162;6.788;2023-06-26T06:24:24;12.20;;;6.53;;
55633;SDS011;41504;53.162;6.788;2023-06-26T06:26:50;16.10;;;6.80;;
55633;SDS011;41504;53.162;6.788;2023-06-26T06:29:15;14.07;;;6.38;;
55633;SDS011;41504;53.162;6.788;2023-06-26T06:31:42;14.07;;;6.03;;
55633;SDS011;41504;53.162;6.788;2023-06-26T06:34:07;13.60;;;5.88;;
55633;SDS011;41504;53.162;6.788;2023-06-26T06:36:33;13.57;;;5.93;;
55633;SDS011;41504;53.162;6.788;2023-06-26T06:38:59;13.43;;;6.18;;
55633;SDS011;41504;53.162;6.788;2023-06-26T06:41:24;13.38;;;5.30;;
55633;SDS011;41504;53.162;6.788;2023-06-26T06:43:50;13.43;;;5.10;;
55633;SDS011;41504;53.162;6.788;2023-06-26T06:46:16;8.77;;;4.55;;
55633;SDS011;41504;53.162;6.788;2023-06-26T06:48:42;12.60;;;5.10;;
55633;SDS011;41504;53.162;6.788;2023-06-26T06:51:08;11.30;;;4.15;;
55633;SDS011;41504;53.162;6.788;2023-06-26T06:53:33;12.23;;;3.97;;
55633;SDS011;41504;53.162;6.788;2023-06-26T06:55:59;12.13;;;4.00;;
55633;SDS011;41504;53.162;6.788;2023-06-26T06:58:25;11.90;;;3.50;;
55633;SDS011;41504;53.162;6.788;2023-06-26T07:00:54;9.73;;;3.60;;
55633;SDS011;41504;53.162;6.788;2023-06-26T07:03:20;7.55;;;3.08;;
55633;SDS011;41504;53.162;6.788;2023-06-26T07:05:47;8.20;;;3.08;;
55633;SDS011;41504;53.162;6.788;2023-06-26T07:08:12;9.20;;;3.05;;
55633;SDS011;41504;53.162;6.788;2023-06-26T07:10:39;9.38;;;3.38;;
55633;SDS011;41504;53.162;6.788;2023-06-26T07:13:05;10.25;;;3.40;;
55633;SDS011;41504;53.162;6.788;2023-06-26T07:15:30;11.43;;;3.33;;
55633;SDS011;41504;53.162;6.788;2023-06-26T07:17:56;9.05;;;2.97;;
55633;SDS011;41504;53.162;6.788;2023-06-26T07:20:22;9.63;;;3.20;;
55633;SDS011;41504;53.162;6.788;2023-06-26T07:22:48;7.10;;;2.80;;
55633;SDS011;41504;53.162;6.788;2023-06-26T07:25:14;7.97;;;2.58;;
55633;SDS011;41504;53.162;6.788;2023-06-26T07:27:41;8.13;;;2.63;;
55633;SDS011;41504;53.162;6.788;2023-06-26T07:30:10;11.00;;;2.97;;
55633;SDS011;41504;53.162;6.788;2023-06-26T07:32:39;9.02;;;3.15;;
55633;SDS011;41504;53.162;6.788;2023-06-26T07:35:08;11.68;;;3.33;;
55633;SDS011;41504;53.162;6.788;2023-06-26T07:37:34;9.35;;;3.00;;
55633;SDS011;41504;53.162;6.788;2023-06-26T07:40:00;9.68;;;2.85;;
55633;SDS011;41504;53.162;6.788;2023-06-26T07:42:27;8.18;;;2.80;;
55633;SDS011;41504;53.162;6.788;2023-06-26T07:44:53;10.65;;;3.03;;
55633;SDS011;41504;53.162;6.788;2023-06-26T07:47:19;8.30;;;2.90;;
55633;SDS011;41504;53.162;6.788;2023-06-26T07:49:45;6.90;;;2.50;;
55633;SDS011;41504;53.162;6.788;2023-06-26T07:52:10;7.72;;;2.67;;
55633;SDS011;41504;53.162;6.788;2023-06-26T07:54:39;7.15;;;2.67;;
55633;SDS011;41504;53.162;6.788;2023-06-26T07:57:05;5.40;;;2.25;;
55633;SDS011;41504;53.162;6.788;2023-06-26T07:59:39;8.93;;;2.35;;
55633;SDS011;41504;53.162;6.788;2023-06-26T08:02:05;6.18;;;2.47;;
55633;SDS011;41504;53.162;6.788;2023-06-26T08:04:34;7.38;;;2.40;;
55633;SDS011;41504;53.162;6.788;2023-06-26T08:07:00;6.82;;;2.53;;
55633;SDS011;41504;53.162;6.788;2023-06-26T08:09:27;6.65;;;2.15;;
55633;SDS011;41504;53.162;6.788;2023-06-26T08:11:54;8.55;;;2.50;;
55633;SDS011;41504;53.162;6.788;2023-06-26T08:14:20;6.47;;;2.25;;
55633;SDS011;41504;53.162;6.788;2023-06-26T08:16:47;8.07;;;2.20;;
55633;SDS011;41504;53.162;6.788;2023-06-26T08:19:13;7.97;;;1.83;;
55633;SDS011;41504;53.162;6.788;2023-06-26T08:21:43;6.82;;;2.10;;
55633;SDS011;41504;53.162;6.788;2023-06-26T08:24:10;6.72;;;2.25;;
55633;SDS011;41504;53.162;6.788;2023-06-26T08:26:38;6.63;;;1.98;;
55633;SDS011;41504;53.162;6.788;2023-06-26T08:29:04;6.28;;;1.95;;
55633;SDS011;41504;53.162;6.788;2023-06-26T08:31:42;7.90;;;2.10;;
55633;SDS011;41504;53.162;6.788;2023-06-26T08:34:08;5.78;;;2.10;;
55633;SDS011;41504;53.162;6.788;2023-06-26T08:36:34;8.27;;;2.72;;
55633;SDS011;41504;53.162;6.788;2023-06-26T08:39:00;6.45;;;2.28;;
55633;SDS011;41504;53.162;6.788;2023-06-26T08:41:26;4.90;;;2.03;;
55633;SDS011;41504;53.162;6.788;2023-06-26T08:43:51;4.53;;;1.77;;
55633;SDS011;41504;53.162;6.788;2023-06-26T08:46:18;8.18;;;1.92;;
55633;SDS011;41504;53.162;6.788;2023-06-26T08:51:39;8.57;;;2.15;;
55633;SDS011;41504;53.162;6.788;2023-06-26T08:54:12;7.20;;;2.78;;
55633;SDS011;41504;53.162;6.788;2023-06-26T08:56:42;4.35;;;2.00;;
55633;SDS011;41504;53.162;6.788;2023-06-26T08:59:11;8.00;;;2.13;;
55633;SDS011;41504;53.162;6.788;2023-06-26T09:01:39;6.53;;;2.20;;
55633;SDS011;41504;53.162;6.788;2023-06-26T09:04:05;7.78;;;2.53;;
55633;SDS011;41504;53.162;6.788;2023-06-26T09:06:34;5.22;;;2.28;;
55633;SDS011;41504;53.162;6.788;2023-06-26T09:09:03;5.40;;;2.30;;
55633;SDS011;41504;53.162;6.788;2023-06-26T09:11:29;4.00;;;2.00;;
55633;SDS011;41504;53.162;6.788;2023-06-26T09:13:55;4.75;;;2.10;;
55633;SDS011;41504;53.162;6.788;2023-06-26T09:16:24;7.43;;;2.22;;
55633;SDS011;41504;53.162;6.788;2023-06-26T09:21:21;5.10;;;2.30;;
55633;SDS011;41504;53.162;6.788;2023-06-26T09:23:49;6.43;;;2.55;;
55633;SDS011;41504;53.162;6.788;2023-06-26T09:26:15;6.28;;;2.20;;
55633;SDS011;41504;53.162;6.788;2023-06-26T09:28:42;5.22;;;2.45;;
55633;SDS011;41504;53.162;6.788;2023-06-26T09:31:08;6.18;;;2.53;;
55633;SDS011;41504;53.162;6.788;2023-06-26T09:33:35;6.60;;;2.83;;
55633;SDS011;41504;53.162;6.788;2023-06-26T09:36:10;5.63;;;2.40;;
55633;SDS011;41504;53.162;6.788;2023-06-26T09:38:45;6.55;;;2.70;;
55633;SDS011;41504;53.162;6.788;2023-06-26T09:41:10;7.97;;;2.50;;
55633;SDS011;41504;53.162;6.788;2023-06-26T09:43:45;5.85;;;2.28;;
55633;SDS011;41504;53.162;6.788;2023-06-26T09:46:30;6.35;;;2.47;;
55633;SDS011;41504;53.162;6.788;2023-06-26T09:49:00;6.95;;;2.97;;
55633;SDS011;41504;53.162;6.788;2023-06-26T09:53:56;5.50;;;2.50;;
55633;SDS011;41504;53.162;6.788;2023-06-26T09:56:22;8.07;;;2.13;;
55633;SDS011;41504;53.162;6.788;2023-06-26T09:58:49;6.40;;;2.42;;
55633;SDS011;41504;53.162;6.788;2023-06-26T10:01:14;7.10;;;2.70;;
55633;SDS011;41504;53.162;6.788;2023-06-26T10:03:40;8.55;;;2.60;;
55633;SDS011;41504;53.162;6.788;2023-06-26T10:06:12;5.47;;;2.30;;
55633;SDS011;41504;53.162;6.788;2023-06-26T10:08:39;6.47;;;2.47;;
55633;SDS011;41504;53.162;6.788;2023-06-26T10:11:07;4.78;;;2.30;;
55633;SDS011;41504;53.162;6.788;2023-06-26T10:13:37;5.22;;;2.35;;
55633;SDS011;41504;53.162;6.788;2023-06-26T10:16:07;8.38;;;2.47;;
55633;SDS011;41504;53.162;6.788;2023-06-26T10:18:39;5.78;;;2.28;;
55633;SDS011;41504;53.162;6.788;2023-06-26T10:21:05;6.28;;;2.78;;
55633;SDS011;41504;53.162;6.788;2023-06-26T10:23:39;6.55;;;2.30;;
55633;SDS011;41504;53.162;6.788;2023-06-26T10:26:08;6.90;;;2.97;;
55633;SDS011;41504;53.162;6.788;2023-06-26T10:28:34;5.10;;;2.45;;
55633;SDS011;41504;53.162;6.788;2023-06-26T10:31:07;6.65;;;2.78;;
55633;SDS011;41504;53.162;6.788;2023-06-26T10:33:35;6.32;;;2.45;;
55633;SDS011;41504;53.162;6.788;2023-06-26T10:38:50;6.13;;;2.72;;
55633;SDS011;41504;53.162;6.788;2023-06-26T10:41:20;9.48;;;2.90;;
55633;SDS011;41504;53.162;6.788;2023-06-26T10:43:52;6.53;;;2.55;;
55633;SDS011;41504;53.162;6.788;2023-06-26T10:46:51;6.25;;;2.50;;
55633;SDS011;41504;53.162;6.788;2023-06-26T10:49:18;5.35;;;2.28;;
55633;SDS011;41504;53.162;6.788;2023-06-26T10:51:49;6.47;;;2.58;;
55633;SDS011;41504;53.162;6.788;2023-06-26T10:54:16;5.97;;;2.63;;
55633;SDS011;41504;53.162;6.788;2023-06-26T10:56:44;7.75;;;2.80;;
55633;SDS011;41504;53.162;6.788;2023-06-26T10:59:13;9.48;;;2.70;;
55633;SDS011;41504;53.162;6.788;2023-06-26T11:02:01;5.97;;;2.58;;
55633;SDS011;41504;53.162;6.788;2023-06-26T11:04:40;4.63;;;2.50;;
55633;SDS011;41504;53.162;6.788;2023-06-26T11:07:19;6.43;;;3.03;;
55633;SDS011;41504;53.162;6.788;2023-06-26T11:09:53;6.03;;;3.10;;
55633;SDS011;41504;53.162;6.788;2023-06-26T11:15:10;7.30;;;2.78;;
55633;SDS011;41504;53.162;6.788;2023-06-26T11:17:41;7.75;;;2.85;;
55633;SDS011;41504;53.162;6.788;2023-06-26T11:20:09;8.35;;;3.22;;
55633;SDS011;41504;53.162;6.788;2023-06-26T11:22:42;8.10;;;2.78;;
55633;SDS011;41504;53.162;6.788;2023-06-26T11:25:17;6.65;;;2.40;;
55633;SDS011;41504;53.162;6.788;2023-06-26T11:27:45;7.82;;;2.67;;
55633;SDS011;41504;53.162;6.788;2023-06-26T11:30:22;4.47;;;2.25;;
55633;SDS011;41504;53.162;6.788;2023-06-26T11:32:48;5.75;;;2.38;;
55633;SDS011;41504;53.162;6.788;2023-06-26T11:35:24;6.35;;;2.40;;
55633;SDS011;41504;53.162;6.788;2023-06-26T11:40:25;6.72;;;2.25;;
55633;SDS011;41504;53.162;6.788;2023-06-26T11:43:03;4.13;;;1.95;;
55633;SDS011;41504;53.162;6.788;2023-06-26T11:45:32;6.75;;;2.17;;
55633;SDS011;41504;53.162;6.788;2023-06-26T11:47:57;7.15;;;2.50;;
55633;SDS011;41504;53.162;6.788;2023-06-26T11:50:24;5.07;;;1.98;;
55633;SDS011;41504;53.162;6.788;2023-06-26T11:52:54;6.03;;;2.00;;
55633;SDS011;41504;53.162;6.788;2023-06-26T11:55:24;5.22;;;1.80;;
55633;SDS011;41504;53.162;6.788;2023-06-26T11:57:52;5.05;;;2.03;;
55633;SDS011;41504;53.162;6.788;2023-06-26T12:00:19;4.72;;;1.88;;
55633;SDS011;41504;53.162;6.788;2023-06-26T12:02:46;4.00;;;1.70;;
55633;SDS011;41504;53.162;6.788;2023-06-26T12:05:12;5.35;;;2.08;;
55633;SDS011;41504;53.162;6.788;2023-06-26T12:07:39;6.50;;;2.40;;
55633;SDS011;41504;53.162;6.788;2023-06-26T12:10:07;6.07;;;1.55;;
55633;SDS011;41504;53.162;6.788;2023-06-26T12:12:35;5.57;;;1.60;;
55633;SDS011;41504;53.162;6.788;2023-06-26T12:15:05;7.32;;;2.28;;
55633;SDS011;41504;53.162;6.788;2023-06-26T12:17:32;6.00;;;1.70;;
55633;SDS011;41504;53.162;6.788;2023-06-26T12:19:58;4.68;;;1.88;;
55633;SDS011;41504;53.162;6.788;2023-06-26T12:22:24;6.38;;;1.70;;
55633;SDS011;41504;53.162;6.788;2023-06-26T12:24:59;4.85;;;1.60;;
55633;SDS011;41504;53.162;6.788;2023-06-26T12:27:25;5.38;;;1.77;;
55633;SDS011;41504;53.162;6.788;2023-06-26T12:29:54;4.10;;;1.80;;
55633;SDS011;41504;53.162;6.788;2023-06-26T12:32:23;6.93;;;1.77;;
55633;SDS011;41504;53.162;6.788;2023-06-26T12:34:50;4.43;;;1.85;;
55633;SDS011;41504;53.162;6.788;2023-06-26T12:37:16;4.60;;;1.95;;
55633;SDS011;41504;53.162;6.788;2023-06-26T12:39:46;6.10;;;2.00;;
55633;SDS011;41504;53.162;6.788;2023-06-26T12:42:16;4.70;;;2.00;;
55633;SDS011;41504;53.162;6.788;2023-06-26T12:44:43;5.45;;;1.60;;
55633;SDS011;41504;53.162;6.788;2023-06-26T12:47:09;6.93;;;1.98;;
55633;SDS011;41504;53.162;6.788;2023-06-26T12:49:38;4.90;;;2.08;;
55633;SDS011;41504;53.162;6.788;2023-06-26T12:52:06;7.00;;;1.95;;
55633;SDS011;41504;53.162;6.788;2023-06-26T12:54:34;8.07;;;2.03;;
55633;SDS011;41504;53.162;6.788;2023-06-26T12:57:03;8.45;;;2.05;;
55633;SDS011;41504;53.162;6.788;2023-06-26T12:59:29;5.22;;;2.03;;
55633;SDS011;41504;53.162;6.788;2023-06-26T13:01:56;6.13;;;1.70;;
55633;SDS011;41504;53.162;6.788;2023-06-26T13:04:22;6.15;;;1.80;;
55633;SDS011;41504;53.162;6.788;2023-06-26T13:06:48;8.63;;;1.92;;
55633;SDS011;41504;53.162;6.788;2023-06-26T13:09:15;6.95;;;2.20;;
55633;SDS011;41504;53.162;6.788;2023-06-26T13:11:41;4.80;;;1.80;;
55633;SDS011;41504;53.162;6.788;2023-06-26T13:14:10;6.95;;;2.10;;
55633;SDS011;41504;53.162;6.788;2023-06-26T13:16:39;7.20;;;1.90;;
55633;SDS011;41504;53.162;6.788;2023-06-26T13:19:08;7.28;;;2.17;;
55633;SDS011;41504;53.162;6.788;2023-06-26T13:21:34;6.22;;;1.90;;
55633;SDS011;41504;53.162;6.788;2023-06-26T13:24:00;5.72;;;2.03;;
55633;SDS011;41504;53.162;6.788;2023-06-26T13:26:28;6.20;;;2.08;;
55633;SDS011;41504;53.162;6.788;2023-06-26T13:28:55;7.07;;;2.10;;
55633;SDS011;41504;53.162;6.788;2023-06-26T13:31:20;5.70;;;1.98;;
55633;SDS011;41504;53.162;6.788;2023-06-26T13:33:46;6.65;;;2.10;;
55633;SDS011;41504;53.162;6.788;2023-06-26T13:36:17;6.68;;;1.90;;
55633;SDS011;41504;53.162;6.788;2023-06-26T13:38:44;8.10;;;2.22;;
55633;SDS011;41504;53.162;6.788;2023-06-26T13:41:10;6.32;;;2.17;;
55633;SDS011;41504;53.162;6.788;2023-06-26T13:43:36;6.60;;;2.00;;
55633;SDS011;41504;53.162;6.788;2023-06-26T13:46:03;7.43;;;1.75;;
55633;SDS011;41504;53.162;6.788;2023-06-26T13:48:29;7.18;;;2.55;;
55633;SDS011;41504;53.162;6.788;2023-06-26T13:50:54;6.47;;;1.88;;
55633;SDS011;41504;53.162;6.788;2023-06-26T13:53:21;7.97;;;1.92;;
55633;SDS011;41504;53.162;6.788;2023-06-26T13:55:47;5.65;;;1.77;;
55633;SDS011;41504;53.162;6.788;2023-06-26T13:58:13;4.72;;;1.70;;
55633;SDS011;41504;53.162;6.788;2023-06-26T14:00:41;6.32;;;2.00;;
55633;SDS011;41504;53.162;6.788;2023-06-26T14:03:09;6.53;;;2.13;;
55633;SDS011;41504;53.162;6.788;2023-06-26T14:05:35;5.43;;;1.70;;
55633;SDS011;41504;53.162;6.788;2023-06-26T14:08:05;4.82;;;1.85;;
55633;SDS011;41504;53.162;6.788;2023-06-26T14:10:32;8.75;;;2.13;;
55633;SDS011;41504;53.162;6.788;2023-06-26T14:12:59;6.30;;;1.80;;
55633;SDS011;41504;53.162;6.788;2023-06-26T14:15:25;7.40;;;2.15;;
55633;SDS011;41504;53.162;6.788;2023-06-26T14:17:51;6.55;;;1.88;;
55633;SDS011;41504;53.162;6.788;2023-06-26T14:20:17;5.72;;;1.75;;
55633;SDS011;41504;53.162;6.788;2023-06-26T14:22:46;6.50;;;2.00;;
55633;SDS011;41504;53.162;6.788;2023-06-26T14:25:12;5.43;;;2.13;;
55633;SDS011;41504;53.162;6.788;2023-06-26T14:27:39;7.72;;;2.25;;
55633;SDS011;41504;53.162;6.788;2023-06-26T14:30:05;7.25;;;2.20;;
55633;SDS011;41504;53.162;6.788;2023-06-26T14:32:34;6.75;;;2.45;;
55633;SDS011;41504;53.162;6.788;2023-06-26T14:35:01;5.93;;;2.00;;
55633;SDS011;41504;53.162;6.788;2023-06-26T14:37:28;7.53;;;2.05;;
55633;SDS011;41504;53.162;6.788;2023-06-26T14:39:55;6.88;;;1.98;;
55633;SDS011;41504;53.162;6.788;2023-06-26T14:42:20;7.35;;;2.05;;
55633;SDS011;41504;53.162;6.788;2023-06-26T14:44:46;6.72;;;2.17;;
55633;SDS011;41504;53.162;6.788;2023-06-26T14:47:13;7.22;;;2.20;;
55633;SDS011;41504;53.162;6.788;2023-06-26T14:49:40;6.30;;;1.90;;
55633;SDS011;41504;53.162;6.788;2023-06-26T14:52:05;6.80;;;2.17;;
55633;SDS011;41504;53.162;6.788;2023-06-26T14:54:32;6.30;;;2.03;;
55633;SDS011;41504;53.162;6.788;2023-06-26T14:56:58;7.60;;;1.80;;
55633;SDS011;41504;53.162;6.788;2023-06-26T14:59:25;6.47;;;2.10;;
55633;SDS011;41504;53.162;6.788;2023-06-26T15:01:56;5.28;;;1.88;;
55633;SDS011;41504;53.162;6.788;2023-06-26T15:04:22;5.90;;;1.75;;
55633;SDS011;41504;53.162;6.788;2023-06-26T15:06:48;7.07;;;2.13;;
55633;SDS011;41504;53.162;6.788;2023-06-26T15:09:14;6.80;;;2.10;;